createdAt,value
2019-05-11T00:00:29.113Z,97267.02
2019-05-11T00:05:33.863Z,97266.05
2019-05-11T00:10:38.441Z,97270.25
2019-05-11T00:15:43.247Z,97270.56
2019-05-11T00:20:48.010Z,97270.06
2019-05-11T00:25:52.623Z,97265.55
2019-05-11T00:30:57.215Z,97258.31
2019-05-11T00:36:01.953Z,97262.61
2019-05-11T00:41:07.173Z,97263.95
2019-05-11T00:46:11.910Z,97264.37
2019-05-11T00:51:16.549Z,97264.08
2019-05-11T00:56:21.091Z,97262.86
2019-05-11T01:01:25.716Z,97264.48
2019-05-11T01:06:30.371Z,97264.22
2019-05-11T01:11:34.928Z,97268.14
2019-05-11T01:16:39.651Z,97275.38
2019-05-11T01:21:44.501Z,97282.93
2019-05-11T01:26:49.240Z,97284.49
2019-05-11T01:31:54.088Z,97286.91
2019-05-11T01:36:58.834Z,97284.88
2019-05-11T01:42:03.475Z,97290.59
2019-05-11T01:47:08.111Z,97286.19
2019-05-11T01:52:12.748Z,97289.66
2019-05-11T01:57:17.380Z,97293.66
2019-05-11T02:02:22.140Z,97295.70
2019-05-11T02:07:28.502Z,97296.43
2019-05-11T02:12:33.054Z,97299.18
2019-05-11T02:17:37.684Z,97309.55
2019-05-11T02:22:42.331Z,97300.41
2019-05-11T02:27:47.387Z,97305.19
2019-05-11T02:32:52.133Z,97310.82
2019-05-11T02:37:56.880Z,97309.53
2019-05-11T02:43:01.619Z,97321.45
2019-05-11T02:48:06.259Z,97329.22
2019-05-11T02:53:10.904Z,97334.43
2019-05-11T02:58:15.746Z,97339.80
2019-05-11T03:03:20.490Z,97342.41
2019-05-11T03:08:25.263Z,97343.52
2019-05-11T03:13:29.964Z,97341.05
2019-05-11T03:18:34.717Z,97344.64
2019-05-11T03:23:39.770Z,97345.89
2019-05-11T03:28:45.537Z,97354.89
2019-05-11T03:33:50.590Z,97361.45
2019-05-11T03:38:55.222Z,97358.91
2019-05-11T03:43:59.975Z,97370.17
2019-05-11T03:49:04.809Z,97374.45
2019-05-11T03:54:09.443Z,97374.47
2019-05-11T03:59:14.315Z,97365.83
2019-05-11T04:04:19.146Z,97374.97
2019-05-11T04:09:23.891Z,97368.45
2019-05-11T04:14:28.644Z,97379.23
2019-05-11T04:19:33.415Z,97378.89
2019-05-11T04:24:38.280Z,97375.86
2019-05-11T04:29:43.205Z,97380.70
2019-05-11T04:34:48.120Z,97383.47
2019-05-11T04:39:52.875Z,97392.92
2019-05-11T04:44:57.708Z,97394.45
2019-05-11T04:50:02.553Z,97404.81
2019-05-11T04:55:07.294Z,97407.22
2019-05-11T05:00:12.048Z,97393.09
2019-05-11T05:05:16.800Z,97410.16
2019-05-11T05:10:22.370Z,97411.00
2019-05-11T05:15:27.403Z,97411.47
2019-05-11T05:20:32.243Z,97412.15
2019-05-11T05:25:36.984Z,97424.48
2019-05-11T05:30:41.740Z,97425.70
2019-05-11T05:35:46.574Z,97434.98
2019-05-11T05:40:51.321Z,97428.91
2019-05-11T05:45:57.678Z,97430.88
2019-05-11T05:51:02.444Z,97429.77
2019-05-11T05:56:07.168Z,97427.96
2019-05-11T06:01:12.240Z,97436.34
2019-05-11T06:06:16.881Z,97438.68
2019-05-11T06:11:21.825Z,97441.13
2019-05-11T06:16:27.594Z,97442.34
2019-05-11T06:21:32.747Z,97444.06
2019-05-11T06:26:37.495Z,97443.24
2019-05-11T06:31:42.239Z,97441.00
2019-05-11T06:36:46.978Z,97440.12
2019-05-11T06:41:51.825Z,97447.75
2019-05-11T06:46:56.775Z,97445.77
2019-05-11T06:52:01.616Z,97449.63
2019-05-11T06:57:06.366Z,97440.13
2019-05-11T07:02:11.111Z,97435.05
2019-05-11T07:07:15.855Z,97433.84
2019-05-11T07:12:21.080Z,97438.63
2019-05-11T07:17:26.976Z,97440.05
2019-05-11T07:22:31.628Z,97438.61
2019-05-11T07:27:36.366Z,97435.87
2019-05-11T07:32:40.930Z,97431.59
2019-05-11T07:37:47.701Z,97436.88
2019-05-11T07:42:51.746Z,97433.27
2019-05-11T07:47:58.786Z,97433.50
2019-05-11T07:53:02.953Z,97426.50
2019-05-11T07:58:08.101Z,97433.86
2019-05-11T08:03:12.948Z,97433.03
2019-05-11T08:08:18.186Z,97437.06
2019-05-11T08:13:23.049Z,97443.59
2019-05-11T08:18:28.440Z,97437.86
2019-05-11T08:23:33.356Z,97425.19
2019-05-11T08:28:38.235Z,97432.28
2019-05-11T08:33:42.960Z,97434.05
2019-05-11T08:38:48.285Z,97442.62
2019-05-11T08:43:53.462Z,97437.65
2019-05-11T08:48:59.518Z,97434.21
2019-05-11T08:54:08.764Z,97441.10
2019-05-11T08:59:13.018Z,97425.84
2019-05-11T09:04:18.400Z,97423.23
2019-05-11T09:09:24.029Z,97426.69
2019-05-11T09:14:30.406Z,97413.48
2019-05-11T09:19:35.986Z,97421.34
2019-05-11T09:24:40.829Z,97423.80
2019-05-11T09:29:47.832Z,97420.20
2019-05-11T09:34:52.265Z,97410.36
2019-05-11T09:39:58.386Z,97415.41
2019-05-11T09:45:08.052Z,97418.02
2019-05-11T09:50:13.682Z,97417.83
2019-05-11T09:55:19.435Z,97415.97
2019-05-11T10:00:24.840Z,97416.08
2019-05-11T10:05:32.994Z,97421.16
2019-05-11T10:10:40.521Z,97409.44
2019-05-11T10:15:59.232Z,97405.78
2019-05-11T10:20:53.052Z,97403.75
2019-05-11T10:25:59.255Z,97396.42
2019-05-11T10:31:08.717Z,97396.06
2019-05-11T10:36:20.301Z,97387.72
2019-05-11T10:41:25.452Z,97387.38
2019-05-11T10:46:30.966Z,97388.03
2019-05-11T10:51:38.104Z,97380.17
2019-05-11T10:56:42.465Z,97386.08
2019-05-11T11:01:48.475Z,97380.58
2019-05-11T11:06:53.425Z,97386.14
2019-05-11T11:11:58.166Z,97385.42
2019-05-11T11:17:02.982Z,97382.77
2019-05-11T11:22:30.338Z,97380.50
2019-05-11T11:27:14.520Z,97378.66
2019-05-11T11:32:20.031Z,97381.50
2019-05-11T11:37:25.182Z,97382.25
2019-05-11T11:42:29.979Z,97383.78
2019-05-11T11:47:34.718Z,97373.49
2019-05-11T11:52:41.002Z,97370.66
2019-05-11T11:57:48.456Z,97369.02
2019-05-11T12:02:52.451Z,97369.38
2019-05-11T12:07:58.131Z,97373.54
2019-05-11T12:13:03.076Z,97365.52
2019-05-11T12:18:08.459Z,97360.30
2019-05-11T12:23:13.568Z,97356.89
2019-05-11T12:28:18.577Z,97342.88
2019-05-11T12:33:23.561Z,97336.88
2019-05-11T12:38:28.376Z,97345.17
2019-05-11T12:43:33.741Z,97330.02
2019-05-11T12:48:38.612Z,97332.79
2019-05-11T12:53:44.431Z,97334.09
2019-05-11T12:58:50.565Z,97334.64
2019-05-11T13:03:57.895Z,97329.94
2019-05-11T13:09:02.174Z,97319.81
2019-05-11T13:14:07.997Z,97316.09
2019-05-11T13:19:14.042Z,97316.72
2019-05-11T13:24:18.898Z,97314.14
2019-05-11T13:29:23.632Z,97309.16
2019-05-11T13:34:31.342Z,97310.75
2019-05-11T13:39:37.708Z,97313.34
2019-05-11T13:44:42.166Z,97317.85
2019-05-11T13:49:47.984Z,97318.85
2019-05-11T13:54:53.086Z,97320.41
2019-05-11T13:59:58.075Z,97318.73
2019-05-11T14:05:02.781Z,97324.08
2019-05-11T14:10:08.271Z,97316.84
2019-05-11T14:15:15.022Z,97311.13
2019-05-11T14:20:19.883Z,97311.61
2019-05-11T14:25:24.724Z,97306.14
2019-05-11T14:30:29.582Z,97307.41
2019-05-11T14:35:38.284Z,97315.26
2019-05-11T14:40:42.336Z,97319.86
2019-05-11T14:45:48.663Z,97319.09
2019-05-11T14:50:53.565Z,97318.84
2019-05-11T14:55:58.466Z,97318.34
2019-05-11T15:01:04.257Z,97319.61
2019-05-11T15:06:09.022Z,97312.34
2019-05-11T15:11:13.669Z,97316.89
2019-05-11T15:16:18.867Z,97312.88
2019-05-11T15:21:23.768Z,97312.88
2019-05-11T15:26:28.470Z,97309.20
2019-05-11T15:31:33.260Z,97312.29
2019-05-11T15:36:38.625Z,97311.92
2019-05-11T15:41:44.402Z,97316.61
2019-05-11T15:46:50.663Z,97310.34
2019-05-11T15:51:57.729Z,97314.03
2019-05-11T15:57:01.686Z,97313.77
2019-05-11T16:02:08.452Z,97313.48
2019-05-11T16:07:12.815Z,97314.77
2019-05-11T16:12:18.176Z,97313.74
2019-05-11T16:17:23.018Z,97309.47
2019-05-11T16:22:28.036Z,97317.87
2019-05-11T16:27:32.819Z,97320.61
2019-05-11T16:32:38.612Z,97328.27
2019-05-11T16:37:43.655Z,97335.94
2019-05-11T16:42:50.533Z,97338.05
2019-05-11T16:47:55.685Z,97336.19
2019-05-11T16:53:02.107Z,97338.42
2019-05-11T16:58:08.158Z,97338.09
2019-05-11T17:03:13.075Z,97341.33
2019-05-11T17:08:18.770Z,97348.36
2019-05-11T17:13:23.697Z,97353.53
2019-05-11T17:18:28.706Z,97363.56
2019-05-11T17:23:33.603Z,97367.69
2019-05-11T17:28:38.615Z,97380.16
2019-05-11T17:33:44.014Z,97384.84
2019-05-11T17:38:48.754Z,97391.02
2019-05-11T17:43:53.596Z,97388.18
2019-05-11T17:48:58.341Z,97389.77
2019-05-11T17:54:03.187Z,97396.64
2019-05-11T17:59:08.300Z,97395.77
2019-05-11T18:04:14.823Z,97401.76
2019-05-11T18:09:20.444Z,97414.88
2019-05-11T18:14:25.122Z,97419.93
2019-05-11T18:19:29.874Z,97422.38
2019-05-11T18:24:34.721Z,97433.33
2019-05-11T18:29:39.461Z,97444.67
2019-05-11T18:34:44.310Z,97451.28
2019-05-11T18:39:48.897Z,97455.33
2019-05-11T18:44:53.701Z,97455.27
2019-05-11T18:49:58.868Z,97464.11
2019-05-11T18:55:03.697Z,97472.86
2019-05-11T19:00:09.461Z,97475.41
2019-05-11T19:05:14.106Z,97479.86
2019-05-11T19:10:19.247Z,97490.88
2019-05-11T19:15:24.001Z,97495.84
2019-05-11T19:20:29.155Z,97493.92
2019-05-11T19:25:33.918Z,97489.05
2019-05-11T19:30:38.852Z,97495.13
2019-05-11T19:35:43.608Z,97493.47
2019-05-11T19:40:48.569Z,97501.09
2019-05-11T19:45:53.384Z,97503.38
2019-05-11T19:51:04.585Z,97495.45
2019-05-11T19:56:04.612Z,97500.94
2019-05-11T20:01:09.169Z,97503.16
2019-05-11T20:06:14.511Z,97501.91
2019-05-11T20:11:19.255Z,97501.65
2019-05-11T20:16:23.898Z,97509.17
2019-05-11T20:21:29.054Z,97506.80
2019-05-11T20:26:34.156Z,97519.86
2019-05-11T20:31:38.939Z,97520.08
2019-05-11T20:36:43.687Z,97520.55
2019-05-11T20:41:48.452Z,97527.01
2019-05-11T20:46:53.176Z,97525.98
2019-05-11T20:51:58.159Z,97536.62
2019-05-11T20:57:03.296Z,97530.48
2019-05-11T21:02:09.325Z,97530.53
2019-05-11T21:07:15.241Z,97531.94
2019-05-11T21:12:20.064Z,97533.67
2019-05-11T21:17:24.810Z,97541.12
2019-05-11T21:22:29.557Z,97543.33
2019-05-11T21:27:38.115Z,97549.13
2019-05-11T21:32:42.319Z,97549.83
2019-05-11T21:37:48.716Z,97547.41
2019-05-11T21:42:54.891Z,97536.35
2019-05-11T21:48:00.644Z,97542.30
2019-05-11T21:53:05.253Z,97537.92
2019-05-11T21:58:09.875Z,97535.64
2019-05-11T22:03:14.766Z,97545.37
2019-05-11T22:08:19.717Z,97535.89
2019-05-11T22:13:24.378Z,97514.25
2019-05-11T22:18:31.398Z,97514.92
2019-05-11T22:23:35.736Z,97507.44
2019-05-11T22:28:40.844Z,97506.66
2019-05-11T22:33:47.916Z,97506.20
2019-05-11T22:38:52.137Z,97508.48
2019-05-11T22:43:56.746Z,97498.23
2019-05-11T22:49:03.059Z,97493.26
2019-05-11T22:54:11.145Z,97480.97
2019-05-11T22:59:15.238Z,97491.23
2019-05-11T23:04:20.010Z,97488.18
2019-05-11T23:09:24.721Z,97496.43
2019-05-11T23:14:30.594Z,97496.39
2019-05-11T23:19:35.346Z,97492.21
2019-05-11T23:24:41.521Z,97491.52
2019-05-11T23:29:47.699Z,97491.59
2019-05-11T23:34:52.885Z,97488.53
2019-05-11T23:39:58.500Z,97484.80
2019-05-11T23:45:04.096Z,97490.31
2019-05-11T23:50:08.897Z,97492.68
2019-05-11T23:55:15.304Z,97492.04
